createdAt,value
2023-02-17T00:00:56.790Z,11.50
2023-02-17T00:03:24.858Z,11.38
2023-02-17T00:05:52.672Z,11.56
2023-02-17T00:08:20.296Z,11.55
2023-02-17T00:10:56.666Z,11.38
2023-02-17T00:13:24.308Z,11.50
2023-02-17T00:15:53.548Z,11.44
2023-02-17T00:18:21.374Z,11.52
2023-02-17T00:20:49.034Z,11.43
2023-02-17T00:23:16.694Z,11.38
2023-02-17T00:25:44.721Z,11.26
2023-02-17T00:28:12.486Z,11.39
2023-02-17T00:30:40.190Z,11.38
2023-02-17T00:33:09.158Z,11.39
2023-02-17T00:35:40.802Z,11.44
2023-02-17T00:38:09.764Z,11.42
2023-02-17T00:40:38.817Z,11.35
2023-02-17T00:43:06.710Z,11.36
2023-02-17T00:45:34.766Z,11.32
2023-02-17T00:48:02.434Z,11.47
2023-02-17T00:50:31.449Z,11.36
2023-02-17T00:52:59.128Z,11.22
2023-02-17T00:55:26.931Z,11.39
2023-02-17T00:57:54.600Z,11.46
2023-02-17T01:00:22.752Z,11.36
2023-02-17T01:02:50.642Z,11.33
2023-02-17T01:05:18.440Z,11.44
2023-02-17T01:07:48.845Z,11.22
2023-02-17T01:10:17.049Z,11.35
2023-02-17T01:12:44.769Z,11.25
2023-02-17T01:15:12.671Z,11.22
2023-02-17T01:17:40.462Z,11.31
2023-02-17T01:20:09.185Z,11.30
2023-02-17T01:22:39.102Z,11.27
2023-02-17T01:25:10.106Z,11.26
2023-02-17T01:27:37.937Z,11.37
2023-02-17T01:30:07.008Z,11.25
2023-02-17T01:32:34.721Z,11.26
2023-02-17T01:35:02.393Z,11.36
2023-02-17T01:37:30.053Z,11.39
2023-02-17T01:39:57.664Z,11.38
2023-02-17T01:42:26.823Z,11.36
2023-02-17T01:45:31.186Z,11.18
2023-02-17T01:48:03.797Z,11.28
2023-02-17T01:50:34.714Z,11.27
2023-02-17T01:53:05.285Z,11.15
2023-02-17T01:55:34.868Z,11.31
2023-02-17T01:58:09.955Z,11.28
2023-02-17T02:00:38.207Z,11.26
2023-02-17T02:03:10.035Z,11.11
2023-02-17T02:05:40.584Z,11.13
2023-02-17T02:08:09.627Z,11.16
2023-02-17T02:10:37.276Z,11.16
2023-02-17T02:13:09.116Z,11.14
2023-02-17T02:15:45.459Z,11.11
2023-02-17T02:18:24.727Z,11.12
2023-02-17T02:21:15.576Z,11.10
2023-02-17T02:24:08.477Z,11.03
2023-02-17T02:27:03.139Z,10.94
2023-02-17T02:30:03.620Z,10.91
2023-02-17T02:32:46.664Z,10.86
2023-02-17T02:35:19.450Z,10.85
2023-02-17T02:37:52.977Z,10.91
2023-02-17T02:40:25.292Z,10.68
2023-02-17T02:42:53.800Z,10.78
2023-02-17T02:45:22.814Z,10.81
2023-02-17T02:47:54.080Z,10.78
2023-02-17T02:50:42.497Z,10.74
2023-02-17T02:53:29.020Z,10.76
2023-02-17T02:56:03.761Z,10.88
2023-02-17T02:58:39.407Z,10.84
2023-02-17T03:01:18.962Z,10.47
2023-02-17T03:03:56.116Z,10.79
2023-02-17T03:06:30.737Z,10.82
2023-02-17T03:09:05.145Z,10.86
2023-02-17T03:11:35.612Z,10.74
2023-02-17T03:14:07.005Z,10.81
2023-02-17T03:16:35.477Z,10.86
2023-02-17T03:19:04.841Z,10.77
2023-02-17T03:21:38.077Z,10.87
2023-02-17T03:24:08.129Z,10.96
2023-02-17T03:26:36.021Z,10.93
2023-02-17T03:29:03.928Z,10.49
2023-02-17T03:31:32.370Z,10.93
2023-02-17T03:34:00.807Z,10.93
2023-02-17T03:36:30.129Z,10.81
2023-02-17T03:38:58.189Z,10.85
2023-02-17T03:41:26.183Z,10.81
2023-02-17T03:43:53.849Z,10.88
2023-02-17T03:46:22.340Z,11.04
2023-02-17T03:48:50.171Z,10.94
2023-02-17T03:51:20.451Z,10.86
2023-02-17T03:53:49.900Z,10.92
2023-02-17T03:56:18.565Z,10.93
2023-02-17T03:58:46.616Z,10.85
2023-02-17T04:01:14.944Z,10.85
2023-02-17T04:03:43.159Z,10.92
2023-02-17T04:06:12.186Z,10.86
2023-02-17T04:08:40.692Z,10.93
2023-02-17T04:11:10.814Z,10.98
2023-02-17T04:13:39.954Z,10.77
2023-02-17T04:16:09.294Z,10.79
2023-02-17T04:18:37.743Z,10.83
2023-02-17T04:21:06.282Z,10.66
2023-02-17T04:23:35.392Z,10.62
2023-02-17T04:26:03.249Z,10.67
2023-02-17T04:28:32.448Z,10.71
2023-02-17T04:31:00.821Z,10.67
2023-02-17T04:33:28.683Z,10.54
2023-02-17T04:35:59.572Z,10.57
2023-02-17T04:38:28.284Z,10.61
2023-02-17T04:40:57.099Z,10.60
2023-02-17T04:43:25.976Z,10.63
2023-02-17T04:45:55.214Z,10.51
2023-02-17T04:48:23.454Z,10.57
2023-02-17T04:50:51.191Z,10.56
2023-02-17T04:53:18.971Z,10.58
2023-02-17T04:55:49.389Z,10.49
2023-02-17T04:58:17.187Z,10.49
2023-02-17T05:00:44.918Z,10.53
2023-02-17T05:03:13.964Z,10.60
2023-02-17T05:05:41.622Z,10.49
2023-02-17T05:08:09.482Z,10.49
2023-02-17T05:10:37.218Z,10.49
2023-02-17T05:13:04.935Z,10.59
2023-02-17T05:15:34.789Z,10.54
2023-02-17T05:18:02.992Z,10.46
2023-02-17T05:20:32.078Z,10.51
2023-02-17T05:22:59.743Z,10.49
2023-02-17T05:25:27.431Z,10.46
2023-02-17T05:27:55.270Z,10.53
2023-02-17T05:30:23.212Z,10.52
2023-02-17T05:32:50.867Z,10.39
2023-02-17T05:35:18.755Z,10.56
2023-02-17T05:37:47.756Z,10.53
2023-02-17T05:40:15.456Z,10.33
2023-02-17T05:42:43.078Z,10.33
2023-02-17T05:45:11.324Z,10.38
2023-02-17T05:47:38.968Z,10.37
2023-02-17T05:50:08.003Z,10.38
2023-02-17T05:52:35.658Z,10.41
2023-02-17T05:55:05.155Z,10.36
2023-02-17T05:57:33.342Z,10.38
2023-02-17T06:00:01.065Z,10.33
2023-02-17T06:02:28.798Z,10.38
2023-02-17T06:04:56.470Z,10.37
2023-02-17T06:07:24.181Z,10.35
2023-02-17T06:09:51.814Z,10.36
2023-02-17T06:12:20.896Z,10.33
2023-02-17T06:14:48.557Z,10.36
2023-02-17T06:17:16.368Z,10.26
2023-02-17T06:19:44.025Z,10.28
2023-02-17T06:22:11.802Z,10.29
2023-02-17T06:24:39.572Z,10.23
2023-02-17T06:27:07.430Z,10.27
2023-02-17T06:29:36.476Z,10.23
2023-02-17T06:32:04.555Z,10.15
2023-02-17T06:34:32.437Z,10.20
2023-02-17T06:37:00.142Z,10.23
2023-02-17T06:39:28.132Z,10.25
2023-02-17T06:41:55.782Z,10.15
2023-02-17T06:44:23.581Z,10.03
2023-02-17T06:46:52.641Z,10.21
2023-02-17T06:49:20.463Z,10.25
2023-02-17T06:51:48.088Z,10.16
2023-02-17T06:54:16.809Z,10.35
2023-02-17T06:56:44.694Z,10.19
2023-02-17T06:59:12.398Z,10.18
2023-02-17T07:01:40.149Z,10.18
2023-02-17T07:04:09.822Z,10.29
2023-02-17T07:06:37.552Z,10.23
2023-02-17T07:09:05.234Z,10.25
2023-02-17T07:11:33.033Z,10.11
2023-02-17T07:14:01.362Z,9.98
2023-02-17T07:16:29.237Z,9.94
2023-02-17T07:18:57.177Z,10.03
2023-02-17T07:21:26.392Z,9.96
2023-02-17T07:23:54.215Z,10.05
2023-02-17T07:26:22.072Z,10.06
2023-02-17T07:28:49.765Z,10.00
2023-02-17T07:31:18.608Z,10.11
2023-02-17T07:33:48.035Z,10.09
2023-02-17T07:36:18.050Z,9.97
2023-02-17T07:38:47.175Z,10.15
2023-02-17T07:41:16.861Z,10.15
2023-02-17T07:43:45.329Z,10.10
2023-02-17T07:46:13.832Z,10.18
2023-02-17T07:48:41.842Z,10.06
2023-02-17T07:51:11.186Z,10.06
2023-02-17T07:53:39.358Z,10.12
2023-02-17T07:56:10.850Z,10.00
2023-02-17T07:58:40.717Z,10.26
2023-02-17T08:01:08.737Z,10.18
2023-02-17T08:03:36.512Z,10.14
2023-02-17T08:06:04.834Z,10.10
2023-02-17T08:08:50.486Z,10.16
2023-02-17T08:11:37.347Z,10.12
2023-02-17T08:14:05.179Z,10.18
2023-02-17T08:16:32.874Z,10.15
2023-02-17T08:19:00.589Z,9.99
2023-02-17T08:21:28.875Z,10.00
2023-02-17T08:23:56.793Z,10.10
2023-02-17T08:26:26.498Z,10.20
2023-02-17T08:28:54.167Z,10.22
2023-02-17T08:31:24.961Z,10.22
2023-02-17T08:33:53.566Z,10.21
2023-02-17T08:36:22.290Z,10.31
2023-02-17T08:38:51.156Z,10.29
2023-02-17T08:41:22.241Z,10.21
2023-02-17T08:43:51.950Z,10.25
2023-02-17T08:46:20.729Z,10.37
2023-02-17T08:48:49.418Z,10.22
2023-02-17T08:51:23.491Z,10.17
2023-02-17T08:53:51.751Z,10.45
2023-02-17T08:56:19.430Z,10.37
2023-02-17T08:58:47.403Z,10.52
2023-02-17T09:01:18.385Z,10.26
2023-02-17T09:03:47.486Z,10.29
2023-02-17T09:06:16.154Z,10.51
2023-02-17T09:08:44.924Z,10.34
2023-02-17T09:11:15.343Z,10.51
2023-02-17T09:13:43.162Z,10.18
2023-02-17T09:16:11.323Z,10.56
2023-02-17T09:18:40.413Z,10.50
2023-02-17T09:21:09.342Z,10.22
2023-02-17T09:23:37.497Z,10.38
2023-02-17T09:26:06.604Z,10.36
2023-02-17T09:28:34.969Z,10.18
2023-02-17T09:31:09.768Z,10.25
2023-02-17T09:33:37.590Z,10.33
2023-02-17T09:36:08.780Z,10.22
2023-02-17T09:38:38.269Z,10.14
2023-02-17T09:41:16.859Z,10.16
2023-02-17T09:43:44.810Z,10.23
2023-02-17T09:46:16.503Z,10.25
2023-02-17T09:48:46.551Z,10.24
2023-02-17T09:51:22.687Z,10.22
2023-02-17T09:53:57.742Z,10.29
2023-02-17T09:56:33.495Z,10.30
2023-02-17T09:59:07.173Z,10.28
2023-02-17T10:01:36.510Z,10.28
2023-02-17T10:04:09.504Z,10.54
2023-02-17T10:06:41.112Z,10.41
2023-02-17T10:09:13.646Z,10.39
2023-02-17T10:11:46.728Z,10.34
2023-02-17T10:14:20.036Z,10.40
2023-02-17T10:16:52.652Z,10.51
2023-02-17T10:19:26.297Z,10.47
2023-02-17T10:22:02.912Z,10.58
2023-02-17T10:24:30.824Z,10.83
2023-02-17T10:27:15.471Z,10.80
2023-02-17T10:29:52.584Z,10.85
2023-02-17T10:32:24.249Z,10.86
2023-02-17T10:35:05.832Z,10.70
2023-02-17T10:37:42.167Z,10.73
2023-02-17T10:40:15.731Z,10.70
2023-02-17T10:42:43.535Z,10.87
2023-02-17T10:45:20.591Z,10.65
2023-02-17T10:47:48.584Z,10.74
2023-02-17T10:50:21.220Z,10.88
2023-02-17T10:52:51.212Z,10.88
2023-02-17T10:55:24.078Z,10.98
2023-02-17T10:58:05.612Z,10.92
2023-02-17T11:00:33.805Z,11.05
2023-02-17T11:03:01.838Z,11.09
2023-02-17T11:05:32.270Z,10.88
2023-02-17T11:08:04.124Z,11.05
2023-02-17T11:10:35.789Z,10.94
2023-02-17T11:13:06.169Z,11.07
2023-02-17T11:15:44.479Z,11.06
2023-02-17T11:18:19.376Z,11.25
2023-02-17T11:20:47.947Z,11.19
2023-02-17T11:23:25.215Z,11.37
2023-02-17T11:25:59.110Z,11.29
2023-02-17T11:28:27.381Z,11.26
2023-02-17T11:30:57.841Z,11.37
2023-02-17T11:33:36.418Z,11.35
2023-02-17T11:36:06.742Z,11.29
2023-02-17T11:38:46.237Z,11.45
2023-02-17T11:41:14.268Z,11.48
2023-02-17T11:43:52.925Z,11.41
2023-02-17T11:46:34.786Z,11.53
2023-02-17T11:49:25.822Z,11.71
2023-02-17T11:52:05.893Z,11.57
2023-02-17T11:54:44.872Z,11.61
2023-02-17T11:57:25.749Z,11.47
2023-02-17T12:00:15.316Z,11.68
2023-02-17T12:03:02.547Z,11.85
2023-02-17T12:05:40.634Z,11.84
2023-02-17T12:08:20.975Z,11.93
2023-02-17T12:11:05.773Z,11.88
2023-02-17T12:13:47.997Z,11.84
2023-02-17T12:16:46.989Z,12.01
2023-02-17T12:19:32.775Z,12.03
2023-02-17T12:22:10.186Z,11.85
2023-02-17T12:24:52.700Z,11.96
2023-02-17T12:27:33.132Z,12.05
2023-02-17T12:30:15.629Z,12.20
2023-02-17T12:33:04.508Z,12.11
2023-02-17T12:35:40.182Z,12.21
2023-02-17T12:38:15.302Z,12.23
2023-02-17T12:40:48.208Z,12.26
2023-02-17T12:43:26.312Z,12.37
2023-02-17T12:45:57.286Z,12.24
2023-02-17T12:48:32.239Z,12.25
2023-02-17T12:51:06.888Z,12.19
2023-02-17T12:53:43.187Z,12.27
2023-02-17T12:56:38.154Z,12.34
2023-02-17T12:59:15.411Z,12.49
2023-02-17T13:01:51.744Z,12.45
2023-02-17T13:04:21.309Z,12.49
2023-02-17T13:06:54.987Z,12.65
2023-02-17T13:09:31.326Z,12.65
2023-02-17T13:12:19.798Z,12.61
2023-02-17T13:14:50.727Z,12.58
2023-02-17T13:17:26.723Z,12.49
2023-02-17T13:20:29.066Z,12.64
2023-02-17T13:23:08.245Z,12.61
2023-02-17T13:25:37.851Z,12.61
2023-02-17T13:28:34.104Z,12.60
2023-02-17T13:31:13.121Z,12.71
2023-02-17T13:33:44.519Z,12.71
2023-02-17T13:36:22.463Z,12.75
2023-02-17T13:38:56.654Z,12.75
2023-02-17T13:41:24.394Z,13.02
2023-02-17T13:43:52.030Z,13.19
2023-02-17T13:46:25.108Z,13.08
2023-02-17T13:49:04.331Z,12.92
2023-02-17T13:51:33.766Z,12.78
2023-02-17T13:54:09.496Z,12.71
2023-02-17T13:56:37.185Z,12.76
2023-02-17T13:59:09.551Z,12.84
2023-02-17T14:01:42.458Z,12.63
2023-02-17T14:04:21.664Z,12.69
2023-02-17T14:06:50.221Z,12.43
2023-02-17T14:09:23.698Z,12.52
2023-02-17T14:11:52.259Z,12.58
2023-02-17T14:14:20.282Z,12.50
2023-02-17T14:16:58.691Z,12.30
2023-02-17T14:19:26.433Z,12.27
2023-02-17T14:22:04.013Z,12.16
2023-02-17T14:24:33.374Z,12.15
2023-02-17T14:27:03.181Z,12.05
2023-02-17T14:29:42.966Z,11.97
2023-02-17T14:32:30.916Z,12.12
2023-02-17T14:35:22.443Z,12.16
2023-02-17T14:37:50.516Z,12.02
2023-02-17T14:40:20.383Z,12.08
2023-02-17T14:42:48.534Z,12.13
2023-02-17T14:45:17.900Z,12.19
2023-02-17T14:47:47.392Z,12.11
2023-02-17T14:50:17.287Z,12.33
2023-02-17T14:52:46.918Z,12.23
2023-02-17T14:55:19.712Z,12.32
2023-02-17T14:57:47.441Z,12.23
2023-02-17T15:00:16.353Z,12.26
2023-02-17T15:02:44.067Z,12.25
2023-02-17T15:05:13.156Z,12.28
2023-02-17T15:07:42.235Z,12.25
2023-02-17T15:10:18.980Z,12.23
2023-02-17T15:12:46.816Z,12.15
2023-02-17T15:15:16.079Z,12.13
2023-02-17T15:17:43.912Z,12.10
2023-02-17T15:20:15.369Z,12.15
2023-02-17T15:22:44.397Z,12.13
2023-02-17T15:25:16.958Z,11.91
2023-02-17T15:27:45.289Z,12.06
2023-02-17T15:30:15.879Z,11.96
2023-02-17T15:32:44.447Z,12.20
2023-02-17T15:35:22.571Z,12.12
2023-02-17T15:37:51.006Z,11.94
2023-02-17T15:40:21.128Z,11.95
2023-02-17T15:42:54.417Z,11.85
2023-02-17T15:45:23.929Z,11.75
2023-02-17T15:47:53.415Z,11.70
2023-02-17T15:50:23.804Z,11.68
2023-02-17T15:52:51.936Z,11.75
2023-02-17T15:55:20.365Z,11.53
2023-02-17T15:57:49.766Z,11.68
2023-02-17T16:00:20.638Z,11.67
2023-02-17T16:02:48.443Z,11.58
2023-02-17T16:05:18.474Z,11.71
2023-02-17T16:07:48.033Z,11.56
2023-02-17T16:10:18.026Z,11.63
2023-02-17T16:12:46.870Z,11.69
2023-02-17T16:15:17.782Z,11.63
2023-02-17T16:17:46.342Z,11.64
2023-02-17T16:20:17.694Z,11.60
2023-02-17T16:22:47.710Z,11.64
2023-02-17T16:25:17.286Z,11.68
2023-02-17T16:27:47.024Z,11.66
2023-02-17T16:30:19.624Z,11.68
2023-02-17T16:32:48.032Z,11.52
2023-02-17T16:35:16.842Z,11.61
2023-02-17T16:37:53.755Z,11.51
2023-02-17T16:40:23.850Z,11.52
2023-02-17T16:42:51.949Z,11.58
2023-02-17T16:45:22.039Z,11.66
2023-02-17T16:47:51.581Z,11.61
2023-02-17T16:50:24.792Z,11.71
2023-02-17T16:52:55.325Z,11.46
2023-02-17T16:55:24.721Z,11.54
2023-02-17T16:57:52.489Z,11.68
2023-02-17T17:00:22.544Z,11.63
2023-02-17T17:02:51.037Z,11.56
2023-02-17T17:05:20.250Z,11.62
2023-02-17T17:07:48.968Z,11.68
2023-02-17T17:10:22.664Z,11.59
2023-02-17T17:12:50.633Z,11.72
2023-02-17T17:15:19.368Z,11.74
2023-02-17T17:17:49.555Z,11.59
2023-02-17T17:20:18.940Z,11.75
2023-02-17T17:22:49.215Z,11.68
2023-02-17T17:25:18.599Z,11.65
2023-02-17T17:27:46.598Z,11.76
2023-02-17T17:30:18.677Z,11.64
2023-02-17T17:32:46.688Z,11.64
2023-02-17T17:35:14.645Z,11.67
2023-02-17T17:37:42.465Z,11.62
2023-02-17T17:40:16.912Z,11.57
2023-02-17T17:42:46.257Z,11.71
2023-02-17T17:45:15.099Z,11.66
2023-02-17T17:47:43.164Z,11.58
2023-02-17T17:50:17.169Z,11.57
2023-02-17T17:52:45.138Z,11.71
2023-02-17T17:55:13.290Z,11.86
2023-02-17T17:57:41.319Z,11.87
2023-02-17T18:00:13.052Z,11.75
2023-02-17T18:02:43.681Z,11.78
2023-02-17T18:05:12.292Z,11.74
2023-02-17T18:07:41.464Z,11.79
2023-02-17T18:10:10.914Z,11.65
2023-02-17T18:12:39.778Z,11.70
2023-02-17T18:15:10.266Z,11.70
2023-02-17T18:17:39.897Z,11.79
2023-02-17T18:20:12.083Z,11.73
2023-02-17T18:22:39.841Z,11.75
2023-02-17T18:25:08.212Z,11.66
2023-02-17T18:27:41.411Z,11.77
2023-02-17T18:30:12.430Z,11.63
2023-02-17T18:32:40.506Z,11.68
2023-02-17T18:35:09.183Z,11.73
2023-02-17T18:37:37.030Z,11.72
2023-02-17T18:40:05.529Z,11.64
2023-02-17T18:42:33.986Z,11.50
2023-02-17T18:45:01.864Z,11.69
2023-02-17T18:47:30.921Z,11.78
2023-02-17T18:49:58.951Z,11.82
2023-02-17T18:52:26.794Z,11.67
2023-02-17T18:54:54.505Z,11.76
2023-02-17T18:57:22.212Z,11.68
2023-02-17T18:59:50.361Z,11.70
2023-02-17T19:02:18.375Z,11.72
2023-02-17T19:04:47.441Z,11.78
2023-02-17T19:07:15.137Z,11.84
2023-02-17T19:09:43.241Z,11.77
2023-02-17T19:12:13.450Z,11.68
2023-02-17T19:14:41.997Z,11.72
2023-02-17T19:17:10.679Z,11.61
2023-02-17T19:19:38.622Z,11.57
2023-02-17T19:22:09.497Z,11.72
2023-02-17T19:24:37.476Z,11.75
2023-02-17T19:27:05.772Z,11.67
2023-02-17T19:29:34.115Z,11.63
2023-02-17T19:32:03.354Z,11.56
2023-02-17T19:34:32.125Z,11.75
2023-02-17T19:36:59.804Z,11.80
2023-02-17T19:39:28.906Z,11.70
2023-02-17T19:41:56.585Z,11.68
2023-02-17T19:44:24.314Z,11.64
2023-02-17T19:46:51.989Z,11.72
2023-02-17T19:49:19.760Z,11.70
2023-02-17T19:51:47.689Z,11.84
2023-02-17T19:54:15.377Z,11.71
2023-02-17T19:56:44.509Z,11.69
2023-02-17T19:59:12.181Z,11.77
2023-02-17T20:01:42.355Z,11.75
2023-02-17T20:04:11.413Z,11.69
2023-02-17T20:06:41.559Z,11.62
2023-02-17T20:09:11.623Z,11.69
2023-02-17T20:11:39.384Z,11.73
2023-02-17T20:14:08.528Z,11.67
2023-02-17T20:16:36.426Z,11.69
2023-02-17T20:19:05.990Z,11.73
2023-02-17T20:21:35.849Z,11.78
2023-02-17T20:24:03.740Z,11.78
2023-02-17T20:26:34.213Z,11.75
2023-02-17T20:29:03.085Z,11.80
2023-02-17T20:31:32.416Z,11.80
2023-02-17T20:34:00.549Z,11.80
2023-02-17T20:36:28.376Z,11.76
2023-02-17T20:38:56.065Z,11.81
2023-02-17T20:41:24.554Z,11.77
2023-02-17T20:43:53.350Z,11.75
2023-02-17T20:46:24.592Z,11.72
2023-02-17T20:48:54.583Z,11.85
2023-02-17T20:51:22.717Z,11.85
2023-02-17T20:53:51.072Z,11.62
2023-02-17T20:56:20.923Z,11.88
2023-02-17T20:58:48.668Z,11.90
2023-02-17T21:01:16.587Z,11.91
2023-02-17T21:03:44.423Z,11.82
2023-02-17T21:06:21.676Z,11.83
2023-02-17T21:08:51.516Z,11.85
2023-02-17T21:11:19.327Z,11.91
2023-02-17T21:13:47.634Z,11.94
2023-02-17T21:16:17.431Z,11.57
2023-02-17T21:18:46.994Z,11.83
2023-02-17T21:21:15.395Z,11.83
2023-02-17T21:23:44.668Z,11.87
2023-02-17T21:26:13.794Z,11.85
2023-02-17T21:28:41.526Z,11.81
2023-02-17T21:31:09.959Z,11.92
2023-02-17T21:33:41.694Z,11.79
2023-02-17T21:36:10.646Z,11.97
2023-02-17T21:38:38.567Z,11.92
2023-02-17T21:41:11.141Z,11.94
2023-02-17T21:43:57.053Z,11.93
2023-02-17T21:46:25.987Z,11.98
2023-02-17T21:48:54.126Z,11.82
2023-02-17T21:51:21.854Z,12.05
2023-02-17T21:53:49.858Z,12.07
2023-02-17T21:56:19.463Z,12.05
2023-02-17T21:58:47.518Z,12.09
2023-02-17T22:01:15.274Z,12.05
2023-02-17T22:03:43.161Z,12.08
2023-02-17T22:06:15.856Z,12.09
2023-02-17T22:08:43.540Z,12.07
2023-02-17T22:11:15.875Z,12.04
2023-02-17T22:13:45.074Z,12.02
2023-02-17T22:16:13.118Z,12.13
2023-02-17T22:18:41.600Z,11.93
2023-02-17T22:21:10.731Z,12.14
2023-02-17T22:23:38.504Z,12.05
2023-02-17T22:26:08.549Z,12.02
2023-02-17T22:28:36.315Z,11.96
2023-02-17T22:31:05.830Z,12.00
2023-02-17T22:33:34.056Z,12.04
2023-02-17T22:36:03.921Z,12.11
2023-02-17T22:38:32.167Z,12.07
2023-02-17T22:40:59.926Z,12.07
2023-02-17T22:43:27.600Z,11.89
2023-02-17T22:45:59.399Z,11.98
2023-02-17T22:48:29.261Z,12.09
2023-02-17T22:50:57.297Z,12.13
2023-02-17T22:53:25.246Z,12.11
2023-02-17T22:55:53.834Z,12.05
2023-02-17T22:58:21.972Z,12.07
2023-02-17T23:00:50.189Z,11.99
2023-02-17T23:03:18.712Z,11.95
2023-02-17T23:05:47.792Z,11.96
2023-02-17T23:08:15.469Z,11.93
2023-02-17T23:10:43.923Z,11.88
2023-02-17T23:13:11.688Z,11.87
2023-02-17T23:15:40.615Z,11.85
2023-02-17T23:18:09.655Z,11.82
2023-02-17T23:20:40.111Z,11.81
2023-02-17T23:23:09.611Z,11.95
2023-02-17T23:25:39.911Z,11.98
2023-02-17T23:28:07.813Z,11.85
2023-02-17T23:30:36.000Z,11.68
2023-02-17T23:33:03.901Z,11.88
2023-02-17T23:35:31.642Z,11.51
2023-02-17T23:38:00.700Z,11.97
2023-02-17T23:40:29.713Z,11.88
2023-02-17T23:42:57.827Z,11.86
2023-02-17T23:45:25.617Z,11.96
2023-02-17T23:47:53.249Z,11.85
2023-02-17T23:50:21.141Z,11.90
2023-02-17T23:52:48.823Z,11.80
2023-02-17T23:55:16.788Z,11.91
2023-02-17T23:57:45.816Z,12.03
